Time;durP1;ratioP1;P1;durP2;ratioP2;P2;SDS_P1;SDS_P2;PMS_P1;PMS_P2;Temp;Humidity;BMP_temperature;BMP_pressure;BME280_temperature;BME280_humidity;BME280_pressure;Samples;Min_cycle;Max_cycle;Signal;HPM_P1;HPM_P2
2022/10/07 00:02:19;;;;;;;5.82;2.22;;;;;;;11.81;100.00;96985.88;5080585;28;24431;-75
2022/10/07 00:04:45;;;;;;;5.05;2.05;;;;;;;12.02;100.00;96979.66;5077076;28;24429;-75
2022/10/07 00:07:13;;;;;;;7.77;2.53;;;;;;;11.73;100.00;96988.81;5082136;28;24438;-75
2022/10/07 00:09:40;;;;;;;6.20;2.85;;;;;;;11.58;100.00;96989.56;5085638;28;24488;-75
2022/10/07 00:12:06;;;;;;;4.40;2.15;;;;;;;11.45;100.00;96985.84;5081645;28;24442;-75
2022/10/07 00:14:33;;;;;;;4.05;2.20;;;;;;;11.43;100.00;96985.94;5085876;28;24462;-75
2022/10/07 00:17:00;;;;;;;4.65;2.17;;;;;;;11.47;100.00;96978.84;5073446;28;24808;-75
2022/10/07 00:19:26;;;;;;;5.80;2.45;;;;;;;11.51;100.00;96981.22;5086643;28;24437;-75
2022/10/07 00:21:53;;;;;;;5.18;2.33;;;;;;;11.47;100.00;96984.03;5080251;28;24438;-75
2022/10/07 00:24:21;;;;;;;4.93;2.10;;;;;;;11.31;100.00;96976.97;5086737;28;24998;-75
2022/10/07 00:26:47;;;;;;;7.43;2.42;;;;;;;11.24;100.00;96977.34;5080287;28;24442;-75
2022/10/07 00:29:14;;;;;;;3.45;2.08;;;;;;;11.26;100.00;96971.13;5079640;28;25026;-74
2022/10/07 00:31:40;;;;;;;3.42;1.92;;;;;;;11.28;100.00;96974.53;5080116;28;24445;-74
2022/10/07 00:34:07;;;;;;;9.32;2.47;;;;;;;11.41;100.00;96971.34;5087298;28;24491;-74
2022/10/07 00:36:36;;;;;;;4.47;2.20;;;;;;;11.42;100.00;96965.22;5082375;28;24800;-74
2022/10/07 00:39:04;;;;;;;5.82;2.30;;;;;;;11.30;100.00;96969.25;5084514;28;24990;-74
2022/10/07 00:41:35;;;;;;;5.55;2.50;;;;;;;11.13;100.00;96954.50;5071898;28;24434;-74
2022/10/07 00:44:35;;;;;;;4.72;2.03;;;;;;;11.11;100.00;96949.34;5085699;28;24441;-75
2022/10/07 00:47:05;;;;;;;4.72;1.80;;;;;;;11.08;100.00;96952.09;5077373;28;24441;-75
2022/10/07 00:49:39;;;;;;;4.72;2.30;;;;;;;11.07;100.00;96947.81;5078768;28;24437;-75
2022/10/07 00:52:06;;;;;;;4.53;1.92;;;;;;;11.03;100.00;96941.09;5080699;28;24435;-75
2022/10/07 00:54:33;;;;;;;8.80;2.10;;;;;;;11.06;100.00;96942.72;5083577;28;24546;-75
2022/10/07 00:57:01;;;;;;;8.07;2.50;;;;;;;11.03;100.00;96940.25;5079619;28;24439;-74
2022/10/07 00:59:27;;;;;;;3.47;2.20;;;;;;;11.03;100.00;96938.50;5084294;28;24797;-75
2022/10/07 01:01:54;;;;;;;5.85;2.22;;;;;;;11.01;100.00;96935.16;5086956;28;24997;-74
2022/10/07 01:04:20;;;;;;;7.45;2.65;;;;;;;11.02;100.00;96929.06;5079742;28;24427;-74
2022/10/07 01:06:47;;;;;;;4.90;2.70;;;;;;;11.07;100.00;96932.25;5079025;28;24461;-75
2022/10/07 01:09:14;;;;;;;6.10;2.43;;;;;;;11.09;100.00;96929.63;5083823;28;24426;-74
2022/10/07 01:11:50;;;;;;;5.50;2.22;;;;;;;11.21;100.00;96931.63;5078658;28;24986;-74
2022/10/07 01:14:29;;;;;;;6.18;2.35;;;;;;;11.22;100.00;96930.72;5079972;28;24441;-74
2022/10/07 01:17:02;;;;;;;4.07;1.80;;;;;;;11.10;100.00;96926.94;5078974;28;24458;-74
2022/10/07 01:19:46;;;;;;;4.68;2.25;;;;;;;11.05;100.00;96926.31;5074415;28;24997;-74
2022/10/07 01:22:25;;;;;;;3.08;1.83;;;;;;;11.05;100.00;96918.53;5086855;28;24430;-74
2022/10/07 01:25:06;;;;;;;3.83;1.73;;;;;;;11.09;100.00;96906.28;5078880;28;24458;-74
2022/10/07 01:27:37;;;;;;;4.72;2.00;;;;;;;11.07;100.00;96905.50;5072812;28;24431;-75
2022/10/07 01:30:06;;;;;;;4.68;1.98;;;;;;;11.08;100.00;96905.41;5072701;28;24435;-75
2022/10/07 01:32:36;;;;;;;4.88;2.60;;;;;;;11.10;100.00;96895.00;5084678;28;24442;-75
2022/10/07 01:35:08;;;;;;;3.47;2.10;;;;;;;11.09;100.00;96895.91;5078534;28;24450;-75
2022/10/07 01:37:40;;;;;;;3.35;1.88;;;;;;;11.15;100.00;96903.38;5074517;28;24796;-75
2022/10/07 01:40:12;;;;;;;3.60;2.20;;;;;;;11.21;100.00;96900.50;5078466;28;24434;-74
2022/10/07 01:42:40;;;;;;;9.60;1.92;;;;;;;11.19;100.00;96893.72;5074410;28;24438;-74
2022/10/07 01:45:10;;;;;;;3.08;1.60;;;;;;;11.17;100.00;96892.97;5078623;28;24792;-74
2022/10/07 01:47:37;;;;;;;6.45;1.70;;;;;;;11.15;100.00;96887.81;5070172;28;24488;-74
2022/10/07 01:50:10;;;;;;;4.07;1.63;;;;;;;11.09;100.00;96882.94;5078663;28;24430;-74
2022/10/07 01:52:51;;;;;;;4.50;1.70;;;;;;;11.03;100.00;96873.69;5070140;28;24442;-74
2022/10/07 01:55:37;;;;;;;9.65;2.70;;;;;;;11.11;100.00;96879.34;5081116;28;24545;-74
2022/10/07 01:58:15;;;;;;;2.97;1.77;;;;;;;11.10;100.00;96880.28;5079148;28;24433;-74
2022/10/07 02:00:47;;;;;;;3.15;1.83;;;;;;;11.06;100.00;96877.91;5084140;28;24993;-74
2022/10/07 02:03:33;;;;;;;2.70;1.85;;;;;;;11.04;100.00;96874.53;5074797;28;24441;-74
2022/10/07 02:06:10;;;;;;;5.18;2.22;;;;;;;11.04;100.00;96872.78;5081596;28;24434;-74
2022/10/07 02:08:42;;;;;;;3.28;2.00;;;;;;;11.05;100.00;96865.84;5077486;28;24430;-74
2022/10/07 02:11:14;;;;;;;4.72;2.17;;;;;;;11.07;100.00;96871.78;5081055;28;24427;-74
2022/10/07 02:13:54;;;;;;;5.13;2.03;;;;;;;11.07;100.00;96869.22;5081491;28;24469;-74
2022/10/07 02:16:25;;;;;;;5.65;2.30;;;;;;;11.08;100.00;96860.50;5080698;28;24526;-74
2022/10/07 02:18:53;;;;;;;4.80;2.40;;;;;;;11.09;100.00;96864.81;5081442;28;24430;-74
2022/10/07 02:21:25;;;;;;;5.55;2.63;;;;;;;11.12;100.00;96864.63;5080216;28;24986;-75
2022/10/07 02:23:54;;;;;;;4.30;2.15;;;;;;;11.11;100.00;96856.03;5073610;28;24465;-74
2022/10/07 02:26:24;;;;;;;4.60;2.47;;;;;;;11.12;100.00;96841.28;5077594;28;24422;-74
2022/10/07 02:28:54;;;;;;;4.63;2.20;;;;;;;11.10;100.00;96854.34;5081280;28;24434;-74
2022/10/07 02:31:24;;;;;;;4.65;2.13;;;;;;;11.10;100.00;96845.72;5080329;28;24433;-74
2022/10/07 02:33:53;;;;;;;2.75;2.05;;;;;;;11.09;100.00;96844.06;5080901;28;24983;-74
2022/10/07 02:36:24;;;;;;;5.22;2.30;;;;;;;11.11;100.00;96831.84;5079931;28;24457;-75
2022/10/07 02:38:51;;;;;;;4.43;2.20;;;;;;;11.09;100.00;96831.94;5080790;28;24441;-74
2022/10/07 02:41:31;;;;;;;4.55;2.33;;;;;;;11.08;100.00;96830.22;5080405;28;24488;-74
2022/10/07 02:44:05;;;;;;;4.70;2.10;;;;;;;11.06;100.00;96829.47;5073148;28;25021;-75
2022/10/07 02:46:38;;;;;;;9.10;2.13;;;;;;;11.07;100.00;96831.16;5070982;28;24433;-74
2022/10/07 02:49:08;;;;;;;6.32;2.20;;;;;;;11.06;100.00;96832.06;5080335;28;24800;-75
2022/10/07 02:51:38;;;;;;;4.53;2.30;;;;;;;11.03;100.00;96832.22;5076861;28;25009;-74
2022/10/07 02:54:05;;;;;;;2.60;1.70;;;;;;;11.03;100.00;96823.59;5072214;28;24445;-74
2022/10/07 02:56:36;;;;;;;6.30;1.90;;;;;;;11.02;100.00;96827.94;5081143;28;24458;-75
2022/10/07 02:59:06;;;;;;;6.57;2.13;;;;;;;10.92;100.00;96824.09;5078728;28;24811;-75
2022/10/07 03:01:38;;;;;;;4.35;2.03;;;;;;;10.88;100.00;96827.75;5081053;28;24433;-75
2022/10/07 03:04:04;;;;;;;4.55;2.00;;;;;;;10.90;100.00;96821.59;5077830;28;25055;-74
2022/10/07 03:06:31;;;;;;;6.32;2.05;;;;;;;10.92;100.00;96816.34;5081472;28;24826;-74
2022/10/07 03:08:59;;;;;;;5.23;1.90;;;;;;;10.94;100.00;96808.47;5078320;28;24437;-74
2022/10/07 03:11:25;;;;;;;2.58;1.60;;;;;;;10.97;100.00;96811.75;5067916;28;24438;-74
2022/10/07 03:13:52;;;;;;;3.40;2.08;;;;;;;10.98;100.00;96812.63;5078659;28;24438;-74
2022/10/07 03:16:20;;;;;;;8.05;2.22;;;;;;;10.99;100.00;96809.94;5079909;28;25006;-74
2022/10/07 03:18:47;;;;;;;3.88;1.75;;;;;;;11.00;100.00;96810.78;5079630;28;24426;-74
2022/10/07 03:21:15;;;;;;;4.15;1.98;;;;;;;10.99;100.00;96803.94;5079128;28;24792;-74
2022/10/07 03:23:42;;;;;;;3.55;1.77;;;;;;;10.99;100.00;96802.16;5080011;28;24979;-74
2022/10/07 03:26:08;;;;;;;5.20;1.77;;;;;;;10.99;100.00;96804.75;5078516;28;24433;-74
2022/10/07 03:28:36;;;;;;;4.63;2.10;;;;;;;11.00;100.00;96798.66;5083402;28;24433;-75
2022/10/07 03:31:07;;;;;;;5.00;1.80;;;;;;;11.01;100.00;96795.19;5071791;28;24449;-74
2022/10/07 03:33:36;;;;;;;3.67;1.80;;;;;;;11.02;100.00;96804.63;5083393;28;24438;-74
2022/10/07 03:36:02;;;;;;;3.50;2.00;;;;;;;11.03;100.00;96801.09;5076867;28;24458;-74
2022/10/07 03:38:29;;;;;;;8.75;1.95;;;;;;;11.05;100.00;96799.28;5083455;28;24435;-74
2022/10/07 03:40:55;;;;;;;5.95;2.00;;;;;;;11.04;100.00;96799.34;5076852;28;24431;-74
2022/10/07 03:43:22;;;;;;;3.22;2.08;;;;;;;11.05;100.00;96796.69;5071636;28;24434;-74
2022/10/07 03:45:50;;;;;;;6.80;2.08;;;;;;;11.04;100.00;96794.16;5078106;28;24430;-75
2022/10/07 03:48:17;;;;;;;4.43;2.03;;;;;;;11.06;100.00;96793.19;5079397;28;24433;-74
2022/10/07 03:50:49;;;;;;;4.30;2.05;;;;;;;11.06;100.00;96795.78;5074164;28;24972;-74
2022/10/07 03:53:15;;;;;;;3.83;2.10;;;;;;;11.05;100.00;96790.66;5083007;28;24434;-74
2022/10/07 03:55:42;;;;;;;5.93;1.98;;;;;;;10.99;100.00;96786.63;5069618;28;24477;-74
2022/10/07 03:58:08;;;;;;;6.00;2.45;;;;;;;10.94;100.00;96790.34;5083703;28;24452;-75
2022/10/07 04:00:35;;;;;;;3.90;2.17;;;;;;;10.90;100.00;96789.63;5069643;28;24515;-74
2022/10/07 04:03:01;;;;;;;7.63;2.17;;;;;;;10.89;100.00;96793.97;5083587;28;24533;-74
2022/10/07 04:05:28;;;;;;;4.22;2.05;;;;;;;10.95;100.00;96786.84;5069355;28;24430;-74
2022/10/07 04:07:57;;;;;;;4.22;2.30;;;;;;;10.96;100.00;96780.75;5082831;28;24522;-74
2022/10/07 04:10:24;;;;;;;5.60;1.93;;;;;;;10.99;100.00;96788.38;5076462;28;25046;-74
2022/10/07 04:12:51;;;;;;;4.57;2.37;;;;;;;10.96;100.00;96785.94;5082506;28;24438;-74
2022/10/07 04:15:18;;;;;;;3.33;1.98;;;;;;;11.01;100.00;96781.34;5080314;28;24795;-74
2022/10/07 04:17:46;;;;;;;4.72;1.98;;;;;;;10.98;100.00;96779.75;5084737;28;24462;-74
2022/10/07 04:20:15;;;;;;;8.38;2.17;;;;;;;10.89;100.00;96783.63;5081305;28;24511;-76
2022/10/07 04:22:41;;;;;;;4.70;2.22;;;;;;;10.88;100.00;96781.94;5077045;28;24449;-79
2022/10/07 04:27:58;;;;;;;4.13;1.98;;;;;;;10.87;100.00;96762.13;5077642;28;24986;-78
2022/10/07 04:30:27;;;;;;;3.65;2.08;;;;;;;10.90;100.00;96766.31;5085276;28;24785;-78
2022/10/07 04:32:54;;;;;;;6.57;2.58;;;;;;;10.93;100.00;96765.34;5072896;28;24437;-78
2022/10/07 04:35:22;;;;;;;4.07;2.08;;;;;;;10.96;100.00;96762.59;5084663;28;24441;-78
2022/10/07 04:37:49;;;;;;;4.15;2.03;;;;;;;10.94;100.00;96754.91;5079918;28;24993;-78
2022/10/07 04:40:18;;;;;;;4.45;2.38;;;;;;;10.92;100.00;96756.72;5082732;28;24430;-78
2022/10/07 04:45:29;;;;;;;6.07;2.30;;;;;;;10.92;100.00;96748.94;5083264;28;24508;-77
2022/10/07 04:47:55;;;;;;;6.93;2.20;;;;;;;10.92;100.00;96746.34;5079273;28;25085;-77
2022/10/07 04:50:22;;;;;;;5.72;2.28;;;;;;;10.97;100.00;96743.53;5071621;28;24434;-77
2022/10/07 04:52:48;;;;;;;10.68;2.58;;;;;;;10.90;100.00;96750.75;5082978;28;24434;-77
2022/10/07 04:55:16;;;;;;;4.80;1.95;;;;;;;10.90;100.00;96740.41;5074372;28;24433;-77
2022/10/07 04:57:43;;;;;;;3.17;1.90;;;;;;;10.94;100.00;96746.28;5076457;28;24453;-76
2022/10/07 05:00:10;;;;;;;4.05;2.00;;;;;;;10.97;100.00;96741.78;5082023;28;24426;-76
2022/10/07 05:02:37;;;;;;;6.73;2.23;;;;;;;11.00;100.00;96748.56;5083092;28;24441;-76
2022/10/07 05:05:04;;;;;;;3.73;1.97;;;;;;;11.05;100.00;96741.41;5081830;28;24453;-76
2022/10/07 05:07:31;;;;;;;4.18;1.92;;;;;;;11.04;100.00;96739.72;5082565;28;24492;-76
2022/10/07 05:09:58;;;;;;;5.50;2.00;;;;;;;11.04;100.00;96739.72;5081643;28;24838;-77
2022/10/07 05:12:26;;;;;;;6.72;2.60;;;;;;;10.95;100.00;96740.19;5062208;28;24500;-77
2022/10/07 05:14:52;;;;;;;6.05;2.40;;;;;;;10.99;100.00;96750.31;5081512;28;24441;-76
2022/10/07 05:17:20;;;;;;;5.53;2.45;;;;;;;10.93;100.00;96747.19;5081624;28;24458;-76
2022/10/07 05:19:47;;;;;;;3.22;1.90;;;;;;;10.91;100.00;96739.50;5082957;28;24437;-77
2022/10/07 05:22:13;;;;;;;3.75;1.73;;;;;;;10.89;100.00;96742.16;5070230;28;24442;-76
2022/10/07 05:24:40;;;;;;;6.30;2.10;;;;;;;10.93;100.00;96732.47;5075957;28;24435;-77
2022/10/07 05:27:06;;;;;;;4.27;2.00;;;;;;;10.96;100.00;96731.50;5078326;28;24427;-77
2022/10/07 05:29:34;;;;;;;4.90;2.28;;;;;;;11.00;100.00;96731.25;5076860;28;24437;-77
2022/10/07 05:32:00;;;;;;;4.55;2.33;;;;;;;11.06;100.00;96732.72;5073930;28;24441;-77
2022/10/07 05:34:27;;;;;;;8.27;2.13;;;;;;;11.07;100.00;96735.22;5082070;28;24461;-77
2022/10/07 05:36:54;;;;;;;5.93;2.30;;;;;;;11.10;100.00;96732.50;5080245;28;24902;-76
2022/10/07 05:39:20;;;;;;;2.80;2.00;;;;;;;11.13;100.00;96732.34;5081459;28;24452;-77
2022/10/07 05:41:47;;;;;;;5.00;2.45;;;;;;;11.14;100.00;96735.78;5080735;28;25019;-77
2022/10/07 05:44:13;;;;;;;4.28;2.00;;;;;;;11.21;100.00;96731.97;5082869;28;24801;-75
2022/10/07 05:46:41;;;;;;;9.02;2.30;;;;;;;11.24;100.00;96734.41;5067489;28;24466;-76
2022/10/07 05:49:08;;;;;;;4.45;2.28;;;;;;;11.26;100.00;96729.13;5079639;28;24434;-76
2022/10/07 05:51:34;;;;;;;5.80;2.43;;;;;;;11.29;100.00;96724.63;5082545;28;24998;-76
2022/10/07 05:54:01;;;;;;;8.18;2.65;;;;;;;11.32;100.00;96727.06;5086332;28;24433;-76
2022/10/07 05:56:27;;;;;;;4.70;2.50;;;;;;;11.34;100.00;96727.81;5072348;28;24453;-76
2022/10/07 05:58:55;;;;;;;8.82;2.60;;;;;;;11.37;100.00;96725.06;5085601;28;24431;-76
2022/10/07 06:01:24;;;;;;;7.88;2.70;;;;;;;11.35;100.00;96721.75;5072196;28;24533;-76
2022/10/07 06:03:54;;;;;;;6.25;2.97;;;;;;;11.43;100.00;96718.75;5084308;28;24438;-76
2022/10/07 06:06:21;;;;;;;5.13;2.20;;;;;;;11.46;100.00;96716.00;5078742;28;24427;-75
2022/10/07 06:08:48;;;;;;;5.15;2.40;;;;;;;11.51;100.00;96726.16;5083590;28;24796;-75
2022/10/07 06:14:00;;;;;;;5.82;2.40;;;;;;;11.53;100.00;96717.38;5069489;28;24438;-76
2022/10/07 06:16:27;;;;;;;6.70;2.67;;;;;;;11.57;100.00;96710.28;5082816;28;24451;-76
2022/10/07 06:18:55;;;;;;;5.28;2.53;;;;;;;11.59;100.00;96711.84;5076644;28;24441;-77
2022/10/07 06:21:26;;;;;;;7.07;2.53;;;;;;;11.65;100.00;96707.28;5071221;28;24438;-77
2022/10/07 06:23:53;;;;;;;4.90;2.30;;;;;;;11.70;100.00;96713.06;5084643;28;24438;-77
2022/10/07 06:26:20;;;;;;;4.65;2.70;;;;;;;11.71;100.00;96715.56;5078591;28;24430;-76
2022/10/07 06:28:47;;;;;;;4.55;2.40;;;;;;;11.80;100.00;96719.44;5083136;28;24433;-77
2022/10/07 06:31:15;;;;;;;5.93;2.53;;;;;;;11.86;100.00;96721.72;5079002;28;24437;-76
2022/10/07 06:33:42;;;;;;;8.02;2.95;;;;;;;11.84;100.00;96716.63;5082205;28;24800;-77
2022/10/07 06:36:13;;;;;;;6.32;2.80;;;;;;;11.69;100.00;96717.41;5080123;28;24438;-76
2022/10/07 06:38:44;;;;;;;7.03;3.22;;;;;;;11.74;100.00;96717.16;5070302;28;25929;-76
2022/10/07 06:41:10;;;;;;;4.63;2.80;;;;;;;11.84;100.00;96711.44;5060037;28;24446;-77
2022/10/07 06:43:37;;;;;;;6.50;3.27;;;;;;;11.91;100.00;96711.97;5075204;28;24438;-77
2022/10/07 06:46:05;;;;;;;7.40;3.17;;;;;;;11.97;100.00;96711.63;5078530;28;24441;-77
2022/10/07 06:48:33;;;;;;;8.07;3.58;;;;;;;12.09;100.00;96707.56;5070017;28;24435;-76
2022/10/07 06:51:02;;;;;;;5.60;3.33;;;;;;;12.13;100.00;96706.47;5082670;28;24441;-77
2022/10/07 06:53:30;;;;;;;9.32;3.50;;;;;;;12.23;100.00;96707.63;5075011;28;24446;-77
2022/10/07 06:56:00;;;;;;;6.18;3.15;;;;;;;12.45;100.00;96711.66;5078470;28;24977;-77
2022/10/07 06:58:27;;;;;;;6.57;3.30;;;;;;;12.59;100.00;96709.97;5079693;28;24491;-76
2022/10/07 07:00:54;;;;;;;5.95;3.60;;;;;;;12.72;100.00;96712.72;5076789;28;24433;-78
2022/10/07 07:03:21;;;;;;;10.45;3.63;;;;;;;12.96;100.00;96715.69;5071488;28;24439;-76
2022/10/07 07:05:50;;;;;;;9.48;3.95;;;;;;;13.13;100.00;96713.88;5070659;28;24434;-77
2022/10/07 07:08:16;;;;;;;6.73;4.20;;;;;;;13.37;100.00;96722.03;5073443;28;24435;-78
2022/10/07 07:10:45;;;;;;;10.20;4.20;;;;;;;13.48;100.00;96715.28;5081651;28;24542;-77
2022/10/07 07:13:12;;;;;;;7.93;3.93;;;;;;;13.66;100.00;96718.56;5080879;28;24438;-78
2022/10/07 07:15:39;;;;;;;7.30;4.15;;;;;;;13.85;100.00;96717.44;5083867;28;24434;-77
2022/10/07 07:18:08;;;;;;;7.70;4.33;;;;;;;13.79;100.00;96710.84;5081229;28;25200;-78
2022/10/07 07:20:36;;;;;;;22.03;4.80;;;;;;;14.01;100.00;96712.97;5078389;28;24427;-77
2022/10/07 07:23:03;;;;;;;8.70;5.07;;;;;;;14.10;100.00;96707.19;5071353;28;24439;-77
2022/10/07 07:25:31;;;;;;;9.27;5.22;;;;;;;14.24;100.00;96711.56;5084956;28;24434;-77
2022/10/07 07:28:00;;;;;;;8.47;5.70;;;;;;;14.33;100.00;96702.31;5079858;28;24483;-77
2022/10/07 07:30:27;;;;;;;8.27;5.65;;;;;;;14.50;100.00;96705.56;5070458;28;24496;-77
2022/10/07 07:32:54;;;;;;;12.90;7.15;;;;;;;14.52;100.00;96708.06;5076242;28;24986;-78
2022/10/07 07:35:21;;;;;;;9.70;7.05;;;;;;;14.65;100.00;96706.38;5078717;28;24518;-79
2022/10/07 07:37:49;;;;;;;9.20;7.93;;;;;;;14.68;100.00;96705.31;5069761;28;24460;-78
2022/10/07 07:40:15;;;;;;;15.77;8.82;;;;;;;14.68;100.00;96707.91;5081908;28;24443;-77
2022/10/07 07:42:42;;;;;;;16.10;9.83;;;;;;;14.87;100.00;96703.22;5082064;28;25159;-78
2022/10/07 07:45:10;;;;;;;15.70;9.40;;;;;;;15.19;100.00;96710.69;5080683;28;24442;-77
2022/10/07 07:47:37;;;;;;;15.48;10.70;;;;;;;15.00;100.00;96704.06;5085559;28;24435;-79
2022/10/07 07:50:04;;;;;;;17.08;10.10;;;;;;;15.12;100.00;96701.59;5082893;28;24427;-78
2022/10/07 07:52:31;;;;;;;16.83;9.20;;;;;;;15.22;100.00;96707.88;5090691;28;24449;-77
2022/10/07 07:54:58;;;;;;;13.30;8.65;;;;;;;15.30;100.00;96705.59;5077295;28;24446;-77
2022/10/07 07:57:24;;;;;;;14.33;8.20;;;;;;;15.38;100.00;96707.69;5069965;28;24865;-78
2022/10/07 07:59:51;;;;;;;14.18;7.40;;;;;;;15.51;100.00;96711.16;5083879;28;24553;-77
2022/10/07 08:02:19;;;;;;;12.90;7.38;;;;;;;15.53;100.00;96700.59;5093490;28;24549;-78
2022/10/07 08:04:45;;;;;;;10.17;6.70;;;;;;;15.88;100.00;96698.22;5084254;28;24971;-78
2022/10/07 08:07:12;;;;;;;9.43;6.45;;;;;;;16.03;100.00;96699.75;5079503;28;24434;-78
2022/10/07 08:09:38;;;;;;;9.55;6.40;;;;;;;15.56;100.00;96693.38;5089209;28;24441;-77
2022/10/07 08:12:05;;;;;;;10.15;6.22;;;;;;;15.69;100.00;96696.88;5082625;28;24438;-77
2022/10/07 08:14:32;;;;;;;14.30;6.30;;;;;;;15.63;100.00;96693.81;5082323;28;24441;-77
2022/10/07 08:16:58;;;;;;;12.02;5.60;;;;;;;15.82;100.00;96690.81;5081957;28;24459;-76
2022/10/07 08:19:28;;;;;;;10.20;5.38;;;;;;;16.20;100.00;96688.97;5081933;28;24855;-78
2022/10/07 08:21:54;;;;;;;12.80;5.10;;;;;;;16.50;100.00;96686.88;5089149;28;24430;-77
2022/10/07 08:24:23;;;;;;;12.50;5.40;;;;;;;16.50;100.00;96687.72;5088084;28;24439;-78
2022/10/07 08:26:50;;;;;;;8.85;5.47;;;;;;;16.50;100.00;96684.25;5073959;28;25045;-78
2022/10/07 08:29:17;;;;;;;10.63;4.80;;;;;;;16.86;100.00;96688.63;5077866;28;24438;-77
2022/10/07 08:31:43;;;;;;;8.68;4.82;;;;;;;16.93;100.00;96688.06;5082233;28;24441;-77
2022/10/07 08:34:11;;;;;;;12.27;5.50;;;;;;;17.13;100.00;96684.00;5086755;28;24426;-77
2022/10/07 08:36:39;;;;;;;10.82;5.07;;;;;;;17.22;100.00;96682.47;5081899;28;24441;-77
2022/10/07 08:39:06;;;;;;;8.70;4.97;;;;;;;17.23;100.00;96686.75;5085138;28;24438;-78
2022/10/07 08:41:45;;;;;;;6.30;4.78;;;;;;;17.49;100.00;96682.16;5084365;28;24449;-78
2022/10/07 08:44:19;;;;;;;7.00;4.88;;;;;;;17.38;100.00;96682.13;5074617;28;24435;-76
2022/10/07 08:46:54;;;;;;;10.38;5.20;;;;;;;17.23;100.00;96680.69;5081031;28;24438;-77
2022/10/07 08:49:30;;;;;;;10.57;4.90;;;;;;;17.15;100.00;96679.47;5076981;28;24434;-77
2022/10/07 08:52:03;;;;;;;10.23;4.72;;;;;;;17.52;100.00;96679.31;5078461;28;24484;-77
2022/10/07 08:54:32;;;;;;;8.40;5.07;;;;;;;17.80;100.00;96674.63;5080633;28;24433;-77
2022/10/07 08:57:04;;;;;;;7.28;4.57;;;;;;;18.04;100.00;96671.88;5087282;28;24461;-78
2022/10/07 08:59:33;;;;;;;8.40;5.07;;;;;;;17.57;100.00;96678.94;5078106;28;24598;-76
2022/10/07 09:02:14;;;;;;;6.35;4.70;;;;;;;17.98;100.00;96665.31;5079779;28;24450;-76
2022/10/07 09:04:53;;;;;;;8.93;4.83;;;;;;;17.65;100.00;96661.72;5075780;28;24427;-77
2022/10/07 09:07:30;;;;;;;10.85;5.25;;;;;;;17.89;100.00;96669.47;5087909;28;24512;-78
2022/10/07 09:10:00;;;;;;;13.32;5.85;;;;;;;18.02;100.00;96655.41;5077964;28;24429;-77
2022/10/07 09:12:39;;;;;;;12.48;4.78;;;;;;;18.14;100.00;96659.72;5078234;28;24450;-77
2022/10/07 09:15:14;;;;;;;9.50;4.57;;;;;;;18.05;100.00;96657.78;5081984;28;24430;-77
2022/10/07 09:17:49;;;;;;;9.80;4.60;;;;;;;18.01;100.00;96661.63;5084298;28;24453;-77
2022/10/07 09:20:30;;;;;;;7.70;4.73;;;;;;;18.03;100.00;96651.84;5081353;28;24795;-77
2022/10/07 09:23:00;;;;;;;6.93;4.35;;;;;;;18.46;100.00;96645.81;5081297;28;24827;-77
2022/10/07 09:25:28;;;;;;;7.50;4.70;;;;;;;18.61;99.31;96644.56;5069279;28;24430;-78
2022/10/07 09:27:55;;;;;;;7.80;3.70;;;;;;;18.50;100.00;96640.22;5083293;28;24438;-78
2022/10/07 09:30:23;;;;;;;10.82;4.93;;;;;;;17.93;100.00;96632.56;5084315;28;24795;-79
2022/10/07 09:32:53;;;;;;;8.13;4.30;;;;;;;18.24;100.00;96628.34;5082448;28;24431;-78
2022/10/07 09:35:22;;;;;;;8.70;4.60;;;;;;;18.62;99.59;96630.50;5075023;28;24768;-78
2022/10/07 09:38:02;;;;;;;9.02;5.05;;;;;;;18.59;98.07;96630.75;5082076;28;24983;-78
2022/10/07 09:40:35;;;;;;;8.85;4.95;;;;;;;18.40;100.00;96622.72;5073559;28;24454;-79
2022/10/07 09:43:09;;;;;;;10.38;4.80;;;;;;;18.76;98.38;96625.00;5076976;28;24442;-78
2022/10/07 09:45:36;;;;;;;8.98;5.10;;;;;;;18.65;98.45;96624.16;5076642;28;25025;-78
2022/10/07 09:48:07;;;;;;;6.97;4.80;;;;;;;18.43;98.39;96617.19;5080274;28;24488;-78
2022/10/07 09:50:39;;;;;;;9.82;4.97;;;;;;;18.75;98.61;96623.31;5080608;28;25009;-78
2022/10/07 09:53:18;;;;;;;8.88;4.50;;;;;;;18.53;98.92;96621.56;5074688;28;25046;-78
2022/10/07 09:55:45;;;;;;;9.80;5.38;;;;;;;18.51;98.64;96625.28;5082243;28;24430;-78
2022/10/07 09:58:21;;;;;;;8.93;5.13;;;;;;;18.27;100.00;96620.22;5082149;28;25030;-78
2022/10/07 10:00:50;;;;;;;8.93;5.20;;;;;;;18.54;100.00;96619.78;5083888;28;24427;-78
2022/10/07 10:03:17;;;;;;;13.88;5.40;;;;;;;18.84;98.39;96621.75;5081951;28;24439;-77
2022/10/07 10:05:53;;;;;;;10.05;5.03;;;;;;;19.09;97.77;96623.16;5083723;28;24956;-78
2022/10/07 10:08:25;;;;;;;10.38;5.03;;;;;;;18.94;97.36;96612.13;5082652;28;24437;-78
2022/10/07 10:10:54;;;;;;;8.32;4.63;;;;;;;18.86;98.29;96615.38;5082442;28;25024;-78
2022/10/07 10:13:30;;;;;;;13.02;5.43;;;;;;;19.05;96.01;96613.84;5070307;28;24438;-78
2022/10/07 10:15:57;;;;;;;7.87;4.93;;;;;;;19.03;98.28;96611.38;5078866;28;24509;-77
2022/10/07 10:18:52;;;;;;;10.20;5.78;;;;;;;19.01;98.05;96607.19;5074519;28;24454;-77
2022/10/07 10:21:24;;;;;;;9.10;5.05;;;;;;;19.15;99.27;96604.25;5081191;28;24437;-78
2022/10/07 10:23:53;;;;;;;10.35;4.85;;;;;;;19.18;98.66;96604.00;5082866;28;24444;-78
2022/10/07 10:26:40;;;;;;;7.30;4.70;;;;;;;19.00;96.26;96600.28;5084681;28;24426;-78
2022/10/07 10:29:27;;;;;;;8.65;4.90;;;;;;;18.92;98.32;96587.81;5072532;28;24994;-79
2022/10/07 10:32:16;;;;;;;9.23;4.88;;;;;;;18.87;98.12;96595.22;5082141;28;24959;-77
2022/10/07 10:34:52;;;;;;;8.27;4.85;;;;;;;18.81;98.61;96587.88;5073244;28;24792;-78
2022/10/07 10:37:21;;;;;;;9.85;4.80;;;;;;;18.78;99.55;96593.38;5083323;28;24438;-78
2022/10/07 10:39:59;;;;;;;9.52;5.22;;;;;;;18.59;99.48;96586.97;5083733;28;24432;-77
2022/10/07 10:42:36;;;;;;;9.57;5.88;;;;;;;18.20;100.00;96577.09;5074508;28;24907;-77
2022/10/07 10:45:14;;;;;;;9.13;5.95;;;;;;;18.52;100.00;96582.38;5085110;28;24426;-78
2022/10/07 10:47:59;;;;;;;12.13;5.68;;;;;;;18.89;99.79;96574.94;5078860;28;24435;-78
2022/10/07 10:50:34;;;;;;;9.85;5.60;;;;;;;18.83;98.54;96570.19;5073149;28;24442;-78
2022/10/07 10:53:15;;;;;;;9.68;5.75;;;;;;;18.85;100.00;96569.13;5076006;28;24438;-77
2022/10/07 10:56:01;;;;;;;8.95;5.60;;;;;;;18.61;98.28;96561.47;5074802;28;24997;-78
2022/10/07 10:58:36;;;;;;;11.80;5.78;;;;;;;18.41;100.00;96553.56;5065889;28;25021;-78
2022/10/07 11:01:17;;;;;;;9.47;5.90;;;;;;;18.34;100.00;96561.09;5081369;28;24433;-79
2022/10/07 11:04:15;;;;;;;9.98;6.10;;;;;;;18.25;100.00;96551.34;5079762;28;24446;-78
2022/10/07 11:06:47;;;;;;;11.07;5.82;;;;;;;18.08;100.00;96556.16;5069390;28;24994;-78
2022/10/07 11:09:16;;;;;;;10.88;6.03;;;;;;;18.24;100.00;96560.16;5080743;28;24426;-77
2022/10/07 11:11:45;;;;;;;13.57;5.72;;;;;;;18.23;100.00;96554.09;5082039;28;24449;-77
2022/10/07 11:14:16;;;;;;;9.07;6.15;;;;;;;18.41;100.00;96550.94;5073372;28;25092;-78
2022/10/07 11:16:45;;;;;;;11.75;6.15;;;;;;;18.48;99.20;96549.47;5083386;28;24438;-77
2022/10/07 11:19:18;;;;;;;10.20;6.25;;;;;;;18.09;100.00;96542.09;5071660;28;24888;-78
2022/10/07 11:21:48;;;;;;;9.10;6.05;;;;;;;18.20;100.00;96540.38;5081135;28;24453;-78
2022/10/07 11:24:19;;;;;;;10.13;5.30;;;;;;;18.36;100.00;96539.03;5079179;28;24435;-78
2022/10/07 11:26:52;;;;;;;9.57;5.90;;;;;;;18.19;100.00;96538.72;5081392;28;24860;-78
2022/10/07 11:29:40;;;;;;;8.17;5.90;;;;;;;18.16;100.00;96537.19;5080575;28;24491;-81
2022/10/07 11:32:12;;;;;;;7.77;5.37;;;;;;;17.88;100.00;96531.56;5094771;28;24500;-80
2022/10/07 11:34:45;;;;;;;9.48;6.13;;;;;;;17.90;100.00;96524.38;5096287;28;24482;-81
2022/10/07 11:37:17;;;;;;;10.38;6.22;;;;;;;17.85;100.00;96526.56;5085484;28;24442;-80
2022/10/07 11:39:43;;;;;;;11.00;6.20;;;;;;;18.17;100.00;96514.41;5076580;28;24453;-80
2022/10/07 11:42:16;;;;;;;12.57;6.18;;;;;;;17.93;100.00;96523.31;5081121;28;24818;-82
2022/10/07 11:44:59;;;;;;;8.77;5.60;;;;;;;17.81;100.00;96513.81;5085165;28;24429;-82
2022/10/07 11:47:31;;;;;;;8.90;6.10;;;;;;;17.79;100.00;96510.47;5071451;28;24434;-80